Time;durP1;ratioP1;P1;durP2;ratioP2;P2;SDS_P1;SDS_P2;PMS_P1;PMS_P2;Temp;Humidity;BMP_temperature;BMP_pressure;BME280_temperature;BME280_humidity;BME280_pressure;Samples;Min_cycle;Max_cycle;Signal;HPM_P1;HPM_P2
2022/03/31 18:24:29;;;;;;;17.10;9.55;;;;;;;;;;4936615;29;20072;-61
2022/03/31 18:26:55;;;;;;;16.83;9.60;;;;;;;;;;4931564;29;20534;-60
2022/03/31 18:34:50;;;;;;;15.40;9.27;;;;;;;;;;4934436;29;20190;-62
2022/03/31 18:37:16;;;;;;;15.30;8.95;;;;;;;;;;4933820;28;20031;-60
2022/03/31 18:39:42;;;;;;;15.23;9.48;;;;;;;;;;4932610;29;20474;-61
2022/03/31 18:42:11;;;;;;;14.95;9.30;;;;;;;;;;4929574;29;20059;-60
2022/03/31 18:44:37;;;;;;;15.07;9.55;;;;;;;;;;4933976;29;20038;-64
2022/03/31 18:47:04;;;;;;;14.82;9.30;;;;;;;;;;4932799;29;20032;-62
2022/03/31 18:49:31;;;;;;;13.90;9.02;;;;;;;;;;4934359;29;20443;-61
2022/03/31 18:51:57;;;;;;;15.02;10.32;;;;;;;;;;4935672;29;20086;-61
2022/03/31 18:54:24;;;;;;;17.67;9.43;;;;;;;;;;4932784;29;20067;-60
2022/03/31 18:56:51;;;;;;;14.57;8.30;;;;;;;;;;4931737;29;20040;-61
2022/03/31 18:59:17;;;;;;;14.10;9.35;;;;;;;;;;4932305;29;20059;-62
2022/03/31 19:01:43;;;;;;;12.88;8.77;;;;;;;;;;4929301;29;20027;-62
2022/03/31 19:04:09;;;;;;;12.60;8.68;;;;;;;;;;4931831;29;20035;-62
2022/03/31 19:09:18;;;;;;;13.25;8.27;;;;;;;;;;4930340;29;20054;-62
2022/03/31 19:11:44;;;;;;;13.48;8.88;;;;;;;;;;4931009;29;20091;-66
2022/03/31 19:14:10;;;;;;;14.38;9.25;;;;;;;;;;4939753;29;20032;-62
2022/03/31 19:16:36;;;;;;;15.13;9.20;;;;;;;;;;4935052;29;20087;-62
2022/03/31 19:19:02;;;;;;;14.52;9.32;;;;;;;;;;4950261;28;20051;-60
2022/03/31 19:21:28;;;;;;;15.60;9.55;;;;;;;;;;4933866;29;20040;-62
2022/03/31 19:23:53;;;;;;;14.63;8.95;;;;;;;;;;4936276;28;20551;-59
2022/03/31 19:26:19;;;;;;;14.75;9.68;;;;;;;;;;4934830;29;20539;-59
2022/03/31 19:28:45;;;;;;;13.70;8.70;;;;;;;;;;4931687;29;20030;-60
2022/03/31 19:31:10;;;;;;;12.70;8.45;;;;;;;;;;4931925;29;20142;-63
2022/03/31 19:33:36;;;;;;;13.02;8.73;;;;;;;;;;4930361;28;20107;-60
2022/03/31 19:36:01;;;;;;;14.13;9.50;;;;;;;;;;4933373;29;20106;-61
2022/03/31 19:38:27;;;;;;;12.65;8.50;;;;;;;;;;4932339;28;20039;-61
2022/03/31 19:40:52;;;;;;;12.90;8.50;;;;;;;;;;4949817;28;20035;-62
2022/03/31 19:43:17;;;;;;;12.93;8.25;;;;;;;;;;4934336;29;20511;-60
2022/03/31 19:45:44;;;;;;;11.20;8.20;;;;;;;;;;4933116;28;20020;-60
2022/03/31 19:48:12;;;;;;;12.68;7.88;;;;;;;;;;4933822;29;20043;-60
2022/03/31 19:50:41;;;;;;;13.13;8.30;;;;;;;;;;4936840;29;20218;-62
2022/03/31 19:53:07;;;;;;;12.50;8.55;;;;;;;;;;4933530;28;20379;-60
2022/03/31 19:55:32;;;;;;;12.68;8.82;;;;;;;;;;4935524;29;20032;-61
2022/03/31 19:57:58;;;;;;;11.20;7.80;;;;;;;;;;4932898;29;20083;-59
2022/03/31 20:00:24;;;;;;;12.07;8.23;;;;;;;;;;4934822;29;20046;-60
2022/03/31 20:02:51;;;;;;;11.98;8.45;;;;;;;;;;4933224;29;20031;-62
2022/03/31 20:05:17;;;;;;;12.43;8.70;;;;;;;;;;4929878;29;20027;-61
2022/03/31 20:07:42;;;;;;;12.90;8.70;;;;;;;;;;4932781;29;20118;-60
2022/03/31 20:10:08;;;;;;;11.90;8.23;;;;;;;;;;4934391;29;20162;-60
2022/03/31 20:12:34;;;;;;;10.38;7.95;;;;;;;;;;4933202;29;20041;-60
2022/03/31 20:14:59;;;;;;;12.45;8.55;;;;;;;;;;4946544;28;20031;-61
2022/03/31 20:17:24;;;;;;;11.60;8.20;;;;;;;;;;4924091;29;20035;-61
2022/03/31 20:19:51;;;;;;;11.00;7.78;;;;;;;;;;4928573;29;20098;-57
2022/03/31 20:22:16;;;;;;;10.77;7.50;;;;;;;;;;4928582;29;20393;-61
2022/03/31 20:24:45;;;;;;;11.18;7.70;;;;;;;;;;4926582;29;20028;-58
2022/03/31 20:27:12;;;;;;;11.00;7.78;;;;;;;;;;4929486;29;20148;-60
2022/03/31 20:29:38;;;;;;;10.07;6.90;;;;;;;;;;4933274;29;20049;-59
2022/03/31 20:32:03;;;;;;;13.68;8.48;;;;;;;;;;4931559;29;20024;-57
2022/03/31 20:34:29;;;;;;;12.65;7.75;;;;;;;;;;4931924;29;20046;-60
2022/03/31 20:36:54;;;;;;;11.60;7.90;;;;;;;;;;4930898;29;20023;-58
2022/03/31 20:39:19;;;;;;;12.23;8.00;;;;;;;;;;4931626;29;20031;-60
2022/03/31 20:41:46;;;;;;;11.07;7.78;;;;;;;;;;4931497;29;20035;-59
2022/03/31 20:44:12;;;;;;;11.85;8.35;;;;;;;;;;4924974;29;20054;-57
2022/03/31 20:46:38;;;;;;;12.52;8.10;;;;;;;;;;4928881;29;20032;-55
2022/03/31 20:49:03;;;;;;;11.90;8.38;;;;;;;;;;4928644;29;20056;-63
2022/03/31 20:51:29;;;;;;;14.25;8.23;;;;;;;;;;4927398;29;20035;-58
2022/03/31 20:53:55;;;;;;;12.50;7.90;;;;;;;;;;4927440;29;20498;-57
2022/03/31 20:56:21;;;;;;;11.93;7.93;;;;;;;;;;4946004;28;20487;-59
2022/03/31 20:58:46;;;;;;;12.07;8.55;;;;;;;;;;4929339;29;20034;-59
2022/03/31 21:01:12;;;;;;;14.00;7.60;;;;;;;;;;4933293;29;20031;-59
2022/03/31 21:03:37;;;;;;;11.77;8.10;;;;;;;;;;4948751;28;20027;-59
2022/03/31 21:06:03;;;;;;;11.68;8.13;;;;;;;;;;4930777;29;20110;-60
2022/03/31 21:08:28;;;;;;;11.15;7.45;;;;;;;;;;4931759;29;20035;-60
2022/03/31 21:10:54;;;;;;;11.05;7.82;;;;;;;;;;4934935;29;20042;-59
2022/03/31 21:13:19;;;;;;;12.27;8.35;;;;;;;;;;4930793;29;20119;-59
2022/03/31 21:15:44;;;;;;;11.70;8.23;;;;;;;;;;4929217;29;20420;-61
2022/03/31 21:18:11;;;;;;;13.07;8.35;;;;;;;;;;4933454;29;20035;-61
2022/03/31 21:20:37;;;;;;;12.55;8.38;;;;;;;;;;4932401;29;20065;-61
2022/03/31 21:23:04;;;;;;;13.45;8.48;;;;;;;;;;4929839;29;20055;-59
2022/03/31 21:25:31;;;;;;;10.65;8.13;;;;;;;;;;4929099;29;20800;-58
2022/03/31 21:27:58;;;;;;;11.82;8.02;;;;;;;;;;4931840;29;20028;-58
2022/03/31 21:30:25;;;;;;;11.88;8.23;;;;;;;;;;4930942;29;20360;-61
2022/03/31 21:32:54;;;;;;;13.85;8.23;;;;;;;;;;4930045;29;20502;-55
2022/03/31 21:35:20;;;;;;;12.75;8.38;;;;;;;;;;4931373;29;20134;-56
2022/03/31 21:37:47;;;;;;;10.88;8.15;;;;;;;;;;4929687;29;20060;-58
2022/03/31 21:40:14;;;;;;;11.70;8.82;;;;;;;;;;4932158;29;20066;-58
2022/03/31 21:42:39;;;;;;;11.93;8.38;;;;;;;;;;4932616;29;20123;-58
2022/03/31 21:45:06;;;;;;;14.32;8.73;;;;;;;;;;4931102;29;20106;-58
2022/03/31 21:47:32;;;;;;;12.85;9.32;;;;;;;;;;4929217;29;20039;-56
2022/03/31 21:49:58;;;;;;;12.23;9.02;;;;;;;;;;4932316;29;20083;-58
2022/03/31 21:52:23;;;;;;;15.40;9.65;;;;;;;;;;4933592;29;20059;-58
2022/03/31 21:54:49;;;;;;;14.88;10.15;;;;;;;;;;4932362;29;20047;-58
2022/03/31 21:57:14;;;;;;;13.90;9.60;;;;;;;;;;4946427;28;20023;-60
2022/03/31 21:59:39;;;;;;;14.10;9.57;;;;;;;;;;4948070;28;20035;-60
2022/03/31 22:02:09;;;;;;;14.43;9.95;;;;;;;;;;4929793;29;20060;-60
2022/03/31 22:04:35;;;;;;;15.40;10.35;;;;;;;;;;4928977;29;20036;-60
2022/03/31 22:07:02;;;;;;;15.48;9.23;;;;;;;;;;4929935;29;20140;-61
2022/03/31 22:12:12;;;;;;;15.70;10.65;;;;;;;;;;4930432;29;20027;-61
2022/03/31 22:14:38;;;;;;;16.08;10.07;;;;;;;;;;4928860;29;20027;-62
2022/03/31 22:17:12;;;;;;;14.88;10.57;;;;;;;;;;4928914;29;20403;-60
2022/03/31 22:19:38;;;;;;;14.52;10.43;;;;;;;;;;4930208;29;20163;-60
2022/03/31 22:22:07;;;;;;;14.85;10.55;;;;;;;;;;4946632;28;20059;-61
2022/03/31 22:24:34;;;;;;;13.90;10.27;;;;;;;;;;4930777;28;20043;-60
2022/03/31 22:27:02;;;;;;;15.40;10.95;;;;;;;;;;4933948;29;20031;-60
2022/03/31 22:29:28;;;;;;;15.38;10.93;;;;;;;;;;4950489;28;20036;-58
2022/03/31 22:31:55;;;;;;;16.23;11.75;;;;;;;;;;4933404;29;20384;-62
2022/03/31 22:34:23;;;;;;;13.93;10.38;;;;;;;;;;4928495;29;20110;-59
2022/03/31 22:36:49;;;;;;;15.02;10.95;;;;;;;;;;4932503;29;20034;-67
2022/03/31 22:39:15;;;;;;;17.08;11.23;;;;;;;;;;4931928;29;20498;-61
2022/03/31 22:41:41;;;;;;;15.95;11.68;;;;;;;;;;4931389;29;20147;-59
2022/03/31 22:44:07;;;;;;;14.30;10.38;;;;;;;;;;4930625;29;20488;-60
2022/03/31 22:46:34;;;;;;;14.20;10.18;;;;;;;;;;4931431;29;20035;-61
2022/03/31 22:49:04;;;;;;;14.82;10.38;;;;;;;;;;4934183;29;20023;-62
2022/03/31 22:51:29;;;;;;;14.30;10.43;;;;;;;;;;4930515;29;20032;-60
2022/03/31 22:53:54;;;;;;;14.88;10.95;;;;;;;;;;4929651;29;20023;-61
2022/03/31 22:56:20;;;;;;;13.15;10.32;;;;;;;;;;4930690;29;20040;-60
2022/03/31 22:58:46;;;;;;;14.77;10.57;;;;;;;;;;4928986;29;20027;-60
2022/03/31 23:01:13;;;;;;;16.00;10.13;;;;;;;;;;4939455;28;20046;-61
2022/03/31 23:03:39;;;;;;;12.15;9.55;;;;;;;;;;4950449;28;20514;-60
2022/03/31 23:06:12;;;;;;;13.90;9.15;;;;;;;;;;4934542;29;20031;-61
2022/03/31 23:08:39;;;;;;;13.15;9.45;;;;;;;;;;4931873;29;20137;-62
2022/03/31 23:11:04;;;;;;;12.77;9.68;;;;;;;;;;4933749;29;20044;-62
2022/03/31 23:13:30;;;;;;;12.35;9.23;;;;;;;;;;4931504;29;20035;-59
2022/03/31 23:15:56;;;;;;;12.18;9.15;;;;;;;;;;4933440;29;20035;-60
2022/03/31 23:18:21;;;;;;;12.85;9.88;;;;;;;;;;4934206;29;20391;-60
2022/03/31 23:20:52;;;;;;;13.70;10.05;;;;;;;;;;4934541;29;20494;-67
2022/03/31 23:23:18;;;;;;;11.93;9.60;;;;;;;;;;4931898;29;20178;-60
2022/03/31 23:25:44;;;;;;;13.88;9.23;;;;;;;;;;4933397;29;20111;-60
2022/03/31 23:28:11;;;;;;;15.13;9.80;;;;;;;;;;4931248;29;20035;-62
2022/03/31 23:30:37;;;;;;;13.07;9.55;;;;;;;;;;4951626;28;20024;-60
2022/03/31 23:33:03;;;;;;;12.18;9.82;;;;;;;;;;4934082;29;20028;-60
2022/03/31 23:35:29;;;;;;;12.90;9.75;;;;;;;;;;4932546;29;20487;-59
2022/03/31 23:37:57;;;;;;;12.10;9.35;;;;;;;;;;4932843;29;20167;-58
2022/03/31 23:40:24;;;;;;;12.65;9.50;;;;;;;;;;4932717;29;20046;-60
2022/03/31 23:42:49;;;;;;;12.45;9.48;;;;;;;;;;4930721;29;20036;-60
2022/03/31 23:45:15;;;;;;;11.68;9.52;;;;;;;;;;4931995;29;20097;-60
2022/03/31 23:47:41;;;;;;;12.93;9.63;;;;;;;;;;4928873;29;20031;-59
2022/03/31 23:50:10;;;;;;;11.82;9.05;;;;;;;;;;4931035;29;20027;-59
2022/03/31 23:52:36;;;;;;;13.43;9.70;;;;;;;;;;4931823;29;20032;-60
2022/03/31 23:55:03;;;;;;;13.48;9.05;;;;;;;;;;4928454;29;20383;-62
2022/03/31 23:57:28;;;;;;;10.23;8.55;;;;;;;;;;4930848;29;20047;-62
2022/03/31 23:59:54;;;;;;;10.80;8.55;;;;;;;;;;4933333;29;20040;-59
